Koryo Maru N.1 — JJWU — position and weather

sailwx.info

Track history (hours):
 
Tides and Currents Weather Stations Pressure Air Temp Water Temp Dewpoint Dewpoint Depression Visibility Wind Speed Wind Dir Waves Ship Positions

Koryo Maru N.1

Last reported at 2017-Sep-27 00:28 UTC. Time now 2017-Oct-22 06:32 UTC.
Position N 39°17' W 015°47'.
Warning: this ship's position is 25 days out of date.

Length 59 m.

Type: Fishing. MMSI: 432458000.

Date/timePositionNaut miles runAvg speedWind from/ knotsBaromVisibWave heightAir tempDewpointWater temp
2017-Sep-27 00:28N 39°17' W 015°47'42211.8
2017-Sep-25 12:39N 32°17' W 015°05'311.5
2017-Sep-25 12:23N 32°14' W 015°05'5511.3
2017-Sep-25 07:29N 31°19' W 015°02'1010.9
2017-Sep-25 06:36N 31°09' W 015°02'610.9
2017-Sep-25 06:05N 31°03' W 015°02'210.7
2017-Sep-25 05:51N 31°01' W 015°02'1110.7
2017-Sep-25 04:48N 30°50' W 015°04'310.3
2017-Sep-25 04:29N 30°46' W 015°04'510.4
2017-Sep-25 04:01N 30°41' W 015°05'510.4
2017-Sep-25 03:29N 30°36' W 015°06'1110.6
2017-Sep-25 02:28N 30°25' W 015°07'510.8
2017-Sep-25 02:01N 30°20' W 015°08'510.8
2017-Sep-25 01:31N 30°15' W 015°09'510.6
2017-Sep-25 01:00N 30°10' W 015°09'510.5
2017-Sep-25 00:30N 30°05' W 015°10'510.3
2017-Sep-25 00:01N 29°59' W 015°10'510.5
2017-Sep-24 23:31N 29°54' W 015°11'510.4
2017-Sep-24 23:00N 29°49' W 015°11'510.2
2017-Sep-24 22:30N 29°44' W 015°12'510.1
2017-Sep-24 22:00N 29°39' W 015°13'510.3
2017-Sep-24 21:30N 29°34' W 015°13'510.4
2017-Sep-24 21:00N 29°29' W 015°14'610.5
2017-Sep-24 20:28N 29°23' W 015°15'1010.6
2017-Sep-24 19:31N 29°13' W 015°16'010.3
2017-Sep-24 19:30N 29°13' W 015°16'610.6
2017-Sep-24 18:59N 29°07' W 015°17'810.8
2017-Sep-24 18:16N 28°60' W 015°18'310.9
2017-Sep-24 17:59N 28°57' W 015°18'511.0
2017-Sep-24 17:30N 28°51' W 015°19'611.1
2017-Sep-24 17:00N 28°46' W 015°19'511.0
2017-Sep-24 16:30N 28°40' W 015°20'511.0
2017-Sep-24 16:01N 28°35' W 015°20'611.1
2017-Sep-24 15:31N 28°29' W 015°21'611.2
2017-Sep-24 15:00N 28°24' W 015°21'611.1
2017-Sep-24 14:31N 28°18' W 015°21'510.7
2017-Sep-24 14:01N 28°13' W 015°22'4 7.5
2017-Sep-24 13:31N 28°09' W 015°22'3 5.9
2017-Sep-24 13:01N 28°07' W 015°25'2 3.2
2017-Sep-24 12:31N 28°09' W 015°25'0 0.0
2017-Sep-24 12:00N 28°09' W 015°25'0 0.0
2017-Sep-24 11:30N 28°09' W 015°25'0 0.0
2017-Sep-24 11:00N 28°09' W 015°25'0 0.0
2017-Sep-24 10:30N 28°09' W 015°25'0 0.0
2017-Sep-24 10:01N 28°09' W 015°25'0 0.0
2017-Sep-24 09:31N 28°09' W 015°25'0 0.0
2017-Sep-24 09:00N 28°09' W 015°25'0 0.0
2017-Sep-24 08:30N 28°09' W 015°25'0 0.0
2017-Sep-24 08:00N 28°09' W 015°25'0 0.0
2017-Sep-24 07:30N 28°09' W 015°25'0 0.0
2017-Sep-24 07:00N 28°09' W 015°25'0 0.0
2017-Sep-24 06:30N 28°09' W 015°25'0 0.0
2017-Sep-24 06:00N 28°09' W 015°25'0 0.0
2017-Sep-24 05:30N 28°09' W 015°25'0 0.0
2017-Sep-24 05:00N 28°09' W 015°25'0 0.0
2017-Sep-24 04:30N 28°09' W 015°25'0 0.0
2017-Sep-24 04:00N 28°09' W 015°25'0 0.0
2017-Sep-24 03:30N 28°09' W 015°25'0 0.0
2017-Sep-24 03:00N 28°09' W 015°25'0 0.0
2017-Sep-24 02:30N 28°09' W 015°25'0 0.0
2017-Sep-24 02:01N 28°09' W 015°25'0 0.0
2017-Sep-24 01:30N 28°09' W 015°25'0 0.0
2017-Sep-24 01:01N 28°09' W 015°25'0 0.0
2017-Sep-24 00:31N 28°09' W 015°25'0 0.0
2017-Sep-24 00:00N 28°09' W 015°25'0 0.0
2017-Sep-23 23:30N 28°09' W 015°25'0 0.0
2017-Sep-23 23:00N 28°09' W 015°25'0 0.0
2017-Sep-23 22:31N 28°09' W 015°25'0 0.0
2017-Sep-23 22:01N 28°09' W 015°25'0 0.0
2017-Sep-23 21:31N 28°09' W 015°25'0 0.0
2017-Sep-23 21:01N 28°09' W 015°25'0 0.0
2017-Sep-23 20:30N 28°09' W 015°25'0 0.0
2017-Sep-23 20:01N 28°09' W 015°25'  
Track history (hours):
 
Tides and Currents Weather Stations Pressure Air Temp Water Temp Dewpoint Dewpoint Depression Visibility Wind Speed Wind Dir Waves Ship Positions

Koryo Maru N.1

Last reported at 2017-Sep-27 00:28 UTC. Time now 2017-Oct-22 06:32 UTC.
Position N 39°17' W 015°47'.
Warning: this ship's position is 25 days out of date.

Length 59 m.

Type: Fishing. MMSI: 432458000.

Date/timePositionNaut miles runAvg speedWind from/ knotsBaromVisibWave heightAir tempDewpointWater temp
2017-Sep-27 00:28N 39°17' W 015°47'42211.8
2017-Sep-25 12:39N 32°17' W 015°05'311.5
2017-Sep-25 12:23N 32°14' W 015°05'5511.3
2017-Sep-25 07:29N 31°19' W 015°02'1010.9
2017-Sep-25 06:36N 31°09' W 015°02'610.9
2017-Sep-25 06:05N 31°03' W 015°02'210.7
2017-Sep-25 05:51N 31°01' W 015°02'1110.7
2017-Sep-25 04:48N 30°50' W 015°04'310.3
2017-Sep-25 04:29N 30°46' W 015°04'510.4
2017-Sep-25 04:01N 30°41' W 015°05'510.4
2017-Sep-25 03:29N 30°36' W 015°06'1110.6
2017-Sep-25 02:28N 30°25' W 015°07'510.8
2017-Sep-25 02:01N 30°20' W 015°08'510.8
2017-Sep-25 01:31N 30°15' W 015°09'510.6
2017-Sep-25 01:00N 30°10' W 015°09'510.5
2017-Sep-25 00:30N 30°05' W 015°10'510.3
2017-Sep-25 00:01N 29°59' W 015°10'510.5
2017-Sep-24 23:31N 29°54' W 015°11'510.4
2017-Sep-24 23:00N 29°49' W 015°11'510.2
2017-Sep-24 22:30N 29°44' W 015°12'510.1
2017-Sep-24 22:00N 29°39' W 015°13'510.3
2017-Sep-24 21:30N 29°34' W 015°13'510.4
2017-Sep-24 21:00N 29°29' W 015°14'610.5
2017-Sep-24 20:28N 29°23' W 015°15'1010.6
2017-Sep-24 19:31N 29°13' W 015°16'010.3
2017-Sep-24 19:30N 29°13' W 015°16'610.6
2017-Sep-24 18:59N 29°07' W 015°17'810.8
2017-Sep-24 18:16N 28°60' W 015°18'310.9
2017-Sep-24 17:59N 28°57' W 015°18'511.0
2017-Sep-24 17:30N 28°51' W 015°19'611.1
2017-Sep-24 17:00N 28°46' W 015°19'511.0
2017-Sep-24 16:30N 28°40' W 015°20'511.0
2017-Sep-24 16:01N 28°35' W 015°20'611.1
2017-Sep-24 15:31N 28°29' W 015°21'611.2
2017-Sep-24 15:00N 28°24' W 015°21'611.1
2017-Sep-24 14:31N 28°18' W 015°21'510.7
2017-Sep-24 14:01N 28°13' W 015°22'4 7.5
2017-Sep-24 13:31N 28°09' W 015°22'3 5.9
2017-Sep-24 13:01N 28°07' W 015°25'2 3.2
2017-Sep-24 12:31N 28°09' W 015°25'0 0.0
2017-Sep-24 12:00N 28°09' W 015°25'0 0.0
2017-Sep-24 11:30N 28°09' W 015°25'0 0.0
2017-Sep-24 11:00N 28°09' W 015°25'0 0.0
2017-Sep-24 10:30N 28°09' W 015°25'0 0.0
2017-Sep-24 10:01N 28°09' W 015°25'0 0.0
2017-Sep-24 09:31N 28°09' W 015°25'0 0.0
2017-Sep-24 09:00N 28°09' W 015°25'0 0.0
2017-Sep-24 08:30N 28°09' W 015°25'0 0.0
2017-Sep-24 08:00N 28°09' W 015°25'0 0.0
2017-Sep-24 07:30N 28°09' W 015°25'0 0.0
2017-Sep-24 07:00N 28°09' W 015°25'0 0.0
2017-Sep-24 06:30N 28°09' W 015°25'0 0.0
2017-Sep-24 06:00N 28°09' W 015°25'0 0.0
2017-Sep-24 05:30N 28°09' W 015°25'0 0.0
2017-Sep-24 05:00N 28°09' W 015°25'0 0.0
2017-Sep-24 04:30N 28°09' W 015°25'0 0.0
2017-Sep-24 04:00N 28°09' W 015°25'0 0.0
2017-Sep-24 03:30N 28°09' W 015°25'0 0.0
2017-Sep-24 03:00N 28°09' W 015°25'0 0.0
2017-Sep-24 02:30N 28°09' W 015°25'0 0.0
2017-Sep-24 02:01N 28°09' W 015°25'0 0.0
2017-Sep-24 01:30N 28°09' W 015°25'0 0.0
2017-Sep-24 01:01N 28°09' W 015°25'0 0.0
2017-Sep-24 00:31N 28°09' W 015°25'0 0.0
2017-Sep-24 00:00N 28°09' W 015°25'0 0.0
2017-Sep-23 23:30N 28°09' W 015°25'0 0.0
2017-Sep-23 23:00N 28°09' W 015°25'0 0.0
2017-Sep-23 22:31N 28°09' W 015°25'0 0.0
2017-Sep-23 22:01N 28°09' W 015°25'0 0.0
2017-Sep-23 21:31N 28°09' W 015°25'0 0.0
2017-Sep-23 21:01N 28°09' W 015°25'0 0.0
2017-Sep-23 20:30N 28°09' W 015°25'0 0.0
2017-Sep-23 20:01N 28°09' W 015°25'  

Dump ship's entire track history